createdAt,value
2022-08-30T00:01:32.610Z,98632.78
2022-08-30T00:04:35.028Z,98637.97
2022-08-30T00:07:36.662Z,98635.41
2022-08-30T00:10:38.699Z,98643.59
2022-08-30T00:13:41.187Z,98646.63
2022-08-30T00:16:42.681Z,98636.53
2022-08-30T00:19:44.418Z,98638.38
2022-08-30T00:22:46.167Z,98647.16
2022-08-30T00:25:47.859Z,98646.97
2022-08-30T00:28:49.352Z,98645.09
2022-08-30T00:31:50.880Z,98631.91
2022-08-30T00:34:52.480Z,98639.97
2022-08-30T00:37:54.031Z,98642.59
2022-08-30T00:40:55.572Z,98638.66
2022-08-30T00:43:57.196Z,98637.94
2022-08-30T00:46:58.766Z,98639.84
2022-08-30T00:50:00.359Z,98632.72
2022-08-30T00:53:03.165Z,98635.28
2022-08-30T00:56:04.968Z,98631.72
2022-08-30T00:59:06.631Z,98640.31
2022-08-30T01:02:08.236Z,98634.31
2022-08-30T01:05:11.010Z,98645.16
2022-08-30T01:08:18.477Z,98651.38
2022-08-30T01:11:21.537Z,98644.31
2022-08-30T01:14:25.838Z,98647.69
2022-08-30T01:17:27.972Z,98645.03
2022-08-30T01:20:54.588Z,98652.09
2022-08-30T01:23:56.333Z,98649.56
2022-08-30T01:26:58.020Z,98642.81
2022-08-30T01:29:59.515Z,98642.94
2022-08-30T01:33:02.674Z,98644.69
2022-08-30T01:36:06.499Z,98643.81
2022-08-30T01:39:08.649Z,98645.59
2022-08-30T01:42:10.168Z,98643.97
2022-08-30T01:45:12.009Z,98644.88
2022-08-30T01:48:13.524Z,98645.00
2022-08-30T01:51:15.251Z,98638.75
2022-08-30T01:54:16.822Z,98640.50
2022-08-30T01:57:20.966Z,98648.53
2022-08-30T02:00:22.521Z,98645.19
2022-08-30T02:03:24.664Z,98643.47
2022-08-30T02:06:26.673Z,98634.50
2022-08-30T02:09:28.068Z,98648.47
2022-08-30T02:12:30.418Z,98640.16
2022-08-30T02:15:33.034Z,98643.09
2022-08-30T02:18:43.313Z,98637.03
2022-08-30T02:21:44.795Z,98640.53
2022-08-30T02:24:46.533Z,98635.19
2022-08-30T02:27:48.364Z,98629.97
2022-08-30T02:30:49.950Z,98628.28
2022-08-30T02:33:51.982Z,98622.19
2022-08-30T02:36:53.502Z,98615.94
2022-08-30T02:39:55.021Z,98614.34
2022-08-30T02:42:57.003Z,98611.78
2022-08-30T02:45:59.169Z,98612.03
2022-08-30T02:49:13.171Z,98601.63
2022-08-30T02:52:27.924Z,98601.47
2022-08-30T02:55:29.661Z,98605.03
2022-08-30T02:58:31.154Z,98604.97
2022-08-30T03:01:36.541Z,98601.59
2022-08-30T03:04:39.343Z,98607.00
2022-08-30T03:07:41.337Z,98602.75
2022-08-30T03:10:42.850Z,98600.13
2022-08-30T03:13:44.339Z,98597.59
2022-08-30T03:16:45.911Z,98589.78
2022-08-30T03:19:47.473Z,98588.19
2022-08-30T03:22:49.108Z,98580.38
2022-08-30T03:25:50.683Z,98577.00
2022-08-30T03:28:52.219Z,98580.50
2022-08-30T03:31:53.990Z,98578.78
2022-08-30T03:34:55.627Z,98580.69
2022-08-30T03:37:58.100Z,98585.16
2022-08-30T03:41:00.135Z,98582.44
2022-08-30T03:44:01.598Z,98583.31
2022-08-30T03:47:04.023Z,98585.25
2022-08-30T03:50:05.889Z,98590.69
2022-08-30T03:53:07.539Z,98583.66
2022-08-30T03:56:09.046Z,98585.31
2022-08-30T03:59:10.560Z,98590.59
2022-08-30T04:02:12.100Z,98582.94
2022-08-30T04:05:14.758Z,98583.00
2022-08-30T04:08:20.248Z,98586.44
2022-08-30T04:11:22.024Z,98588.06
2022-08-30T04:14:23.528Z,98578.50
2022-08-30T04:17:25.048Z,98580.38
2022-08-30T04:20:27.544Z,98573.59
2022-08-30T04:23:29.263Z,98579.66
2022-08-30T04:26:30.771Z,98584.78
2022-08-30T04:29:32.931Z,98585.75
2022-08-30T04:32:35.491Z,98591.88
2022-08-30T04:35:37.207Z,98583.88
2022-08-30T04:38:39.396Z,98589.06
2022-08-30T04:41:40.946Z,98589.03
2022-08-30T04:44:42.479Z,98590.88
2022-08-30T04:47:43.997Z,98590.16
2022-08-30T04:50:45.708Z,98599.75
2022-08-30T04:53:47.259Z,98597.13
2022-08-30T04:56:48.757Z,98600.47
2022-08-30T04:59:50.298Z,98608.28
2022-08-30T05:02:51.791Z,98598.59
2022-08-30T05:05:53.411Z,98605.78
2022-08-30T05:08:55.461Z,98602.34
2022-08-30T05:11:57.054Z,98610.97
2022-08-30T05:14:58.704Z,98608.22
2022-08-30T05:18:00.324Z,98611.75
2022-08-30T05:21:10.481Z,98612.66
2022-08-30T05:24:12.098Z,98620.53
2022-08-30T05:27:13.692Z,98615.25
2022-08-30T05:30:15.686Z,98618.59
2022-08-30T05:33:17.287Z,98618.50
2022-08-30T05:36:19.671Z,98614.06
2022-08-30T05:39:21.311Z,98629.69
2022-08-30T05:42:23.698Z,98629.53
2022-08-30T05:45:25.325Z,98620.56
2022-08-30T05:48:26.918Z,98625.75
2022-08-30T05:51:29.112Z,98624.03
2022-08-30T05:54:30.707Z,98613.41
2022-08-30T05:57:33.893Z,98626.41
2022-08-30T06:00:38.075Z,98623.53
2022-08-30T06:03:39.667Z,98624.19
2022-08-30T06:06:42.446Z,98623.06
2022-08-30T06:09:44.410Z,98624.53
2022-08-30T06:12:45.819Z,98625.09
2022-08-30T06:15:47.434Z,98626.53
2022-08-30T06:18:49.038Z,98625.38
2022-08-30T06:21:50.838Z,98625.91
2022-08-30T06:24:59.354Z,98633.38
2022-08-30T06:28:00.948Z,98631.25
2022-08-30T06:31:05.377Z,98629.97
2022-08-30T06:34:07.117Z,98635.69
2022-08-30T06:37:08.646Z,98633.63
2022-08-30T06:40:11.195Z,98640.47
2022-08-30T06:43:12.758Z,98647.25
2022-08-30T06:46:16.626Z,98652.16
2022-08-30T06:49:18.268Z,98648.31
2022-08-30T06:52:19.779Z,98651.44
2022-08-30T06:55:21.371Z,98653.69
2022-08-30T06:58:22.918Z,98659.53
2022-08-30T07:01:25.822Z,98653.97
2022-08-30T07:04:28.010Z,98657.25
2022-08-30T07:07:29.515Z,98664.88
2022-08-30T07:10:31.438Z,98664.38
2022-08-30T07:13:33.766Z,98665.63
2022-08-30T07:16:35.659Z,98665.13
2022-08-30T07:19:37.235Z,98654.91
2022-08-30T07:22:38.830Z,98652.44
2022-08-30T07:25:41.387Z,98652.91
2022-08-30T07:28:43.914Z,98652.31
2022-08-30T07:31:45.595Z,98650.63
2022-08-30T07:34:47.237Z,98659.38
2022-08-30T07:37:53.316Z,98657.69
2022-08-30T07:40:55.120Z,98651.78
2022-08-30T07:43:56.609Z,98654.72
2022-08-30T07:46:58.190Z,98664.97
2022-08-30T07:50:00.611Z,98658.59
2022-08-30T07:53:02.270Z,98663.09
2022-08-30T07:56:04.761Z,98658.72
2022-08-30T07:59:06.552Z,98656.53
2022-08-30T08:02:07.989Z,98656.31
2022-08-30T08:05:12.794Z,98657.81
2022-08-30T08:08:18.138Z,98656.41
2022-08-30T08:11:24.720Z,98658.09
2022-08-30T08:14:26.412Z,98654.94
2022-08-30T08:17:28.017Z,98653.56
2022-08-30T08:20:29.497Z,98658.69
2022-08-30T08:23:32.500Z,98650.88
2022-08-30T08:26:35.807Z,98647.03
2022-08-30T08:29:37.411Z,98649.53
2022-08-30T08:32:39.550Z,98651.22
2022-08-30T08:35:43.439Z,98642.53
2022-08-30T08:38:45.143Z,98650.53
2022-08-30T08:41:52.760Z,98645.06
2022-08-30T08:45:07.450Z,98649.63
2022-08-30T08:48:32.029Z,98635.38
2022-08-30T08:52:05.790Z,98641.19
2022-08-30T08:55:10.393Z,98632.06
2022-08-30T08:58:26.234Z,98627.72
2022-08-30T09:01:29.930Z,98624.59
2022-08-30T09:04:34.690Z,98623.78
2022-08-30T09:07:38.432Z,98620.38
2022-08-30T09:10:50.582Z,98623.28
2022-08-30T09:13:52.744Z,98625.03
2022-08-30T09:17:02.854Z,98625.47
2022-08-30T09:20:05.359Z,98623.53
2022-08-30T09:23:16.106Z,98617.50
2022-08-30T09:26:29.012Z,98619.34
2022-08-30T09:29:31.473Z,98618.72
2022-08-30T09:32:35.281Z,98620.09
2022-08-30T09:35:48.341Z,98620.22
2022-08-30T09:38:57.448Z,98615.91
2022-08-30T09:42:28.987Z,98616.81
2022-08-30T09:45:36.144Z,98614.34
2022-08-30T09:48:47.425Z,98617.00
2022-08-30T09:51:59.314Z,98608.41
2022-08-30T09:55:19.857Z,98611.09
2022-08-30T09:58:43.535Z,98602.06
2022-08-30T10:01:47.598Z,98602.69
2022-08-30T10:05:11.994Z,98595.31
2022-08-30T10:08:16.510Z,98600.00
2022-08-30T10:11:48.478Z,98601.00
2022-08-30T10:14:51.469Z,98593.19
2022-08-30T10:17:59.002Z,98583.81
2022-08-30T10:21:18.932Z,98578.88
2022-08-30T10:24:24.398Z,98582.28
2022-08-30T10:27:30.181Z,98573.69
2022-08-30T10:30:33.911Z,98578.00
2022-08-30T10:33:41.147Z,98583.75
2022-08-30T10:36:45.045Z,98578.91
2022-08-30T10:39:48.958Z,98584.44
2022-08-30T10:42:51.150Z,98589.03
2022-08-30T10:45:53.689Z,98582.72
2022-08-30T10:48:55.315Z,98589.72
2022-08-30T10:52:11.981Z,98591.50
2022-08-30T10:55:19.515Z,98609.28
2022-08-30T10:58:21.165Z,98600.72
2022-08-30T11:01:46.539Z,98607.47
2022-08-30T11:04:53.240Z,98603.47
2022-08-30T11:08:01.166Z,98606.59
2022-08-30T11:11:31.036Z,98600.53
2022-08-30T11:14:32.731Z,98603.19
2022-08-30T11:17:55.035Z,98595.63
2022-08-30T11:21:24.658Z,98593.00
2022-08-30T11:24:26.313Z,98589.28
2022-08-30T11:27:49.314Z,98591.19
2022-08-30T11:30:53.223Z,98593.56
2022-08-30T11:33:57.135Z,98595.84
2022-08-30T11:37:03.336Z,98588.75
2022-08-30T11:40:20.411Z,98582.75
2022-08-30T11:43:34.029Z,98586.19
2022-08-30T11:46:36.895Z,98589.88
2022-08-30T11:50:09.888Z,98583.59
2022-08-30T11:53:29.293Z,98574.69
2022-08-30T11:56:49.136Z,98572.69
2022-08-30T11:59:50.610Z,98564.19
2022-08-30T12:02:59.359Z,98561.75
2022-08-30T12:06:07.970Z,98552.94
2022-08-30T12:09:11.314Z,98552.69
2022-08-30T12:12:38.350Z,98544.22
2022-08-30T12:16:22.040Z,98545.25
2022-08-30T12:19:24.567Z,98534.97
2022-08-30T12:22:27.092Z,98532.31
2022-08-30T12:25:33.205Z,98521.06
2022-08-30T12:28:34.724Z,98527.06
2022-08-30T12:31:49.836Z,98509.44
2022-08-30T12:34:56.454Z,98511.69
2022-08-30T12:38:02.098Z,98512.31
2022-08-30T12:41:05.612Z,98507.75
2022-08-30T12:44:10.000Z,98488.94
2022-08-30T12:47:12.693Z,98497.03
2022-08-30T12:50:25.530Z,98491.16
2022-08-30T12:53:45.744Z,98471.91
2022-08-30T12:57:19.143Z,98461.59
2022-08-30T13:00:35.093Z,98441.06
2022-08-30T13:03:36.723Z,98448.19
2022-08-30T13:06:39.775Z,98467.75
2022-08-30T13:09:42.639Z,98458.56
2022-08-30T13:13:01.101Z,98453.97
2022-08-30T13:16:26.119Z,98455.81
2022-08-30T13:19:39.438Z,98446.81
2022-08-30T13:22:43.320Z,98449.59
2022-08-30T13:25:45.076Z,98454.31
2022-08-30T13:28:54.495Z,98452.94
2022-08-30T13:31:57.097Z,98440.50
2022-08-30T13:34:58.766Z,98434.22
2022-08-30T13:38:00.867Z,98419.56
2022-08-30T13:41:02.557Z,98400.38
2022-08-30T13:44:13.553Z,98416.81
2022-08-30T13:47:34.566Z,98418.81
2022-08-30T13:50:36.865Z,98390.28
2022-08-30T13:53:54.440Z,98354.22
2022-08-30T13:56:56.314Z,98348.59
2022-08-30T13:59:58.075Z,98347.78
2022-08-30T14:03:00.204Z,98361.63
2022-08-30T14:06:29.248Z,98334.09
2022-08-30T14:09:23.653Z,98339.13
2022-08-30T14:15:48.409Z,98339.72
2022-08-30T14:18:51.284Z,98356.00
2022-08-30T14:21:52.861Z,98328.38
2022-08-30T14:24:54.514Z,98364.22
2022-08-30T14:27:57.029Z,98367.44
2022-08-30T14:30:58.646Z,98358.28
2022-08-30T14:34:01.720Z,98357.56
2022-08-30T14:37:06.789Z,98356.84
2022-08-30T14:40:09.334Z,98351.03
2022-08-30T14:43:10.980Z,98360.56
2022-08-30T14:46:12.686Z,98366.16
2022-08-30T14:49:14.440Z,98369.63
2022-08-30T14:52:16.073Z,98363.13
2022-08-30T14:55:17.722Z,98362.88
2022-08-30T14:58:19.386Z,98369.34
2022-08-30T15:01:22.366Z,98382.13
2022-08-30T15:04:24.162Z,98373.59
2022-08-30T15:07:26.855Z,98374.66
2022-08-30T15:10:28.692Z,98379.19
2022-08-30T15:13:30.300Z,98382.66
2022-08-30T15:16:35.616Z,98373.59
2022-08-30T15:19:37.356Z,98370.53
2022-08-30T15:22:40.264Z,98367.66
2022-08-30T15:25:43.108Z,98363.00
2022-08-30T15:28:44.803Z,98356.72
2022-08-30T15:31:49.836Z,98352.47
2022-08-30T15:34:55.855Z,98365.28
2022-08-30T15:37:57.778Z,98336.47
2022-08-30T15:41:03.586Z,98336.13
2022-08-30T15:44:05.993Z,98333.16
2022-08-30T15:47:08.606Z,98330.16
2022-08-30T15:50:10.320Z,98335.84
2022-08-30T15:53:11.888Z,98331.69
2022-08-30T15:56:13.988Z,98338.28
2022-08-30T15:59:15.650Z,98334.63
2022-08-30T16:02:17.291Z,98339.44
2022-08-30T16:05:19.568Z,98334.66
2022-08-30T16:08:21.117Z,98343.72
2022-08-30T16:11:22.880Z,98354.56
2022-08-30T16:14:24.550Z,98355.16
2022-08-30T16:17:26.590Z,98359.31
2022-08-30T16:20:28.236Z,98358.97
2022-08-30T16:23:29.862Z,98356.41
2022-08-30T16:26:35.466Z,98362.38
2022-08-30T16:29:37.098Z,98364.81
2022-08-30T16:32:39.041Z,98367.59
2022-08-30T16:35:42.111Z,98371.38
2022-08-30T16:38:44.667Z,98369.13
2022-08-30T16:41:46.563Z,98352.91
2022-08-30T16:44:49.872Z,98360.09
2022-08-30T16:47:52.097Z,98372.22
2022-08-30T16:50:53.762Z,98375.44
2022-08-30T16:53:56.486Z,98379.16
2022-08-30T16:56:58.103Z,98377.75
2022-08-30T16:59:59.874Z,98368.69
2022-08-30T17:03:01.452Z,98367.06
2022-08-30T17:06:03.449Z,98356.91
2022-08-30T17:09:06.389Z,98362.81
2022-08-30T17:12:08.394Z,98366.78
2022-08-30T17:15:10.850Z,98366.09
2022-08-30T17:18:13.241Z,98363.84
2022-08-30T17:21:15.799Z,98363.31
2022-08-30T17:24:17.439Z,98369.34
2022-08-30T17:27:19.527Z,98384.66
2022-08-30T17:30:21.258Z,98379.22
2022-08-30T17:33:22.969Z,98383.38
2022-08-30T17:36:24.960Z,98378.03
2022-08-30T17:39:26.938Z,98393.22
2022-08-30T17:42:29.678Z,98386.75
2022-08-30T17:45:31.648Z,98390.69
2022-08-30T17:48:35.351Z,98389.81
2022-08-30T17:51:40.813Z,98398.06
2022-08-30T17:54:43.207Z,98394.38
2022-08-30T17:57:44.890Z,98406.91
2022-08-30T18:00:46.550Z,98402.56
2022-08-30T18:03:57.108Z,98409.63
2022-08-30T18:07:03.782Z,98412.94
2022-08-30T18:10:05.684Z,98417.34
2022-08-30T18:13:07.251Z,98426.31
2022-08-30T18:16:10.254Z,98426.09
2022-08-30T18:19:13.868Z,98437.22
2022-08-30T18:22:16.209Z,98431.13
2022-08-30T18:25:17.853Z,98426.56
2022-08-30T18:28:19.544Z,98437.44
2022-08-30T18:31:22.112Z,98415.44
2022-08-30T18:34:23.789Z,98426.03
2022-08-30T18:37:25.368Z,98426.56
2022-08-30T18:40:27.053Z,98428.06
2022-08-30T18:43:30.857Z,98436.94
2022-08-30T18:46:32.862Z,98437.19
2022-08-30T18:49:35.021Z,98436.44
2022-08-30T18:52:36.797Z,98437.59
2022-08-30T18:55:38.384Z,98448.44
2022-08-30T18:58:40.493Z,98446.47
2022-08-30T19:01:48.649Z,98451.56
2022-08-30T19:04:50.801Z,98454.47
2022-08-30T19:07:55.069Z,98463.25
2022-08-30T19:14:19.036Z,98466.97
2022-08-30T19:17:20.613Z,98463.72
2022-08-30T19:20:22.498Z,98467.88
2022-08-30T19:23:27.083Z,98472.84
2022-08-30T19:26:28.834Z,98467.88
2022-08-30T19:29:30.478Z,98479.28
2022-08-30T19:32:32.509Z,98481.41
2022-08-30T19:35:34.102Z,98477.56
2022-08-30T19:38:35.916Z,98485.16
2022-08-30T19:41:37.511Z,98480.25
2022-08-30T19:44:39.119Z,98477.06
2022-08-30T19:47:40.731Z,98479.50
2022-08-30T19:50:42.350Z,98485.06
2022-08-30T19:53:44.076Z,98479.78
2022-08-30T19:56:45.660Z,98482.47
2022-08-30T19:59:49.689Z,98485.56
2022-08-30T20:02:52.075Z,98486.50
2022-08-30T20:05:53.845Z,98486.78
2022-08-30T20:08:56.546Z,98482.50
2022-08-30T20:11:59.546Z,98480.84
2022-08-30T20:15:02.536Z,98477.34
2022-08-30T20:18:06.257Z,98485.78
2022-08-30T20:21:26.232Z,98491.97
2022-08-30T20:24:28.524Z,98495.41
2022-08-30T20:24:31.987Z,98465.38
2022-08-30T20:27:30.302Z,98495.59
2022-08-30T20:30:32.365Z,98494.03
2022-08-30T20:33:37.457Z,98496.72
2022-08-30T20:36:40.379Z,98505.66
2022-08-30T20:39:41.951Z,98503.25
2022-08-30T20:42:45.420Z,98499.16
2022-08-30T20:45:47.291Z,98496.94
2022-08-30T20:48:48.899Z,98490.31
2022-08-30T20:51:54.111Z,98487.13
2022-08-30T20:54:56.065Z,98489.28
2022-08-30T20:57:57.480Z,98492.28
2022-08-30T21:00:59.058Z,98494.63
2022-08-30T21:04:00.627Z,98501.56
2022-08-30T21:07:02.096Z,98497.53
2022-08-30T21:10:04.756Z,98504.13
2022-08-30T21:13:06.260Z,98507.81
2022-08-30T21:16:07.746Z,98513.75
2022-08-30T21:19:09.281Z,98519.56
2022-08-30T21:22:10.794Z,98530.28
2022-08-30T21:25:12.356Z,98538.03
2022-08-30T21:28:13.803Z,98537.25
2022-08-30T21:31:20.710Z,98538.81
2022-08-30T21:34:22.374Z,98544.13
2022-08-30T21:37:23.926Z,98566.56
2022-08-30T21:40:25.465Z,98576.50
2022-08-30T21:43:26.860Z,98595.38
2022-08-30T21:46:28.787Z,98611.38
2022-08-30T21:49:30.423Z,98617.09
2022-08-30T21:52:32.034Z,98617.66
2022-08-30T21:55:33.563Z,98622.75
2022-08-30T21:58:35.134Z,98622.38
2022-08-30T22:01:37.710Z,98619.31
2022-08-30T22:04:40.555Z,98618.00
2022-08-30T22:07:42.060Z,98628.41
2022-08-30T22:10:44.401Z,98634.53
2022-08-30T22:13:48.281Z,98630.19
2022-08-30T22:16:50.082Z,98633.34
2022-08-30T22:19:51.628Z,98630.59
2022-08-30T22:22:53.118Z,98633.31
2022-08-30T22:25:54.638Z,98645.66
2022-08-30T22:28:56.162Z,98646.63
2022-08-30T22:31:58.272Z,98643.03
2022-08-30T22:34:59.879Z,98644.50
2022-08-30T22:38:01.419Z,98661.41
2022-08-30T22:41:02.954Z,98660.66
2022-08-30T22:44:04.484Z,98674.75
2022-08-30T22:47:06.341Z,98684.53
2022-08-30T22:50:08.198Z,98678.69
2022-08-30T22:53:09.895Z,98691.94
2022-08-30T22:56:15.295Z,98688.91
2022-08-30T22:59:16.825Z,98696.53
2022-08-30T23:02:18.490Z,98705.00
2022-08-30T23:05:20.457Z,98703.19
2022-08-30T23:08:21.946Z,98705.09
2022-08-30T23:11:23.691Z,98706.28
2022-08-30T23:14:25.208Z,98711.78
2022-08-30T23:17:26.698Z,98708.53
2022-08-30T23:20:32.792Z,98711.38
2022-08-30T23:23:52.910Z,98713.84
2022-08-30T23:27:13.254Z,98708.72
2022-08-30T23:30:33.428Z,98708.38
2022-08-30T23:33:53.828Z,98713.53
2022-08-30T23:37:13.872Z,98716.28
2022-08-30T23:40:33.974Z,98724.66
2022-08-30T23:43:54.284Z,98718.63
2022-08-30T23:47:14.591Z,98708.00
2022-08-30T23:50:34.687Z,98700.22
2022-08-30T23:53:54.906Z,98695.03
2022-08-30T23:57:15.054Z,98696.31
